sensor_id;sensor_type;location;lat;lon;timestamp;P1;durP1;ratioP1;P2;durP2;ratioP2
22861;SDS011;11598;50.652;6.172;2023-03-20T00:04:37;37.83;;;18.10;;
22861;SDS011;11598;50.652;6.172;2023-03-20T00:14:38;48.78;;;18.77;;
22861;SDS011;11598;50.652;6.172;2023-03-20T00:24:39;31.48;;;15.77;;
22861;SDS011;11598;50.652;6.172;2023-03-20T00:34:39;34.33;;;18.30;;
22861;SDS011;11598;50.652;6.172;2023-03-20T00:44:52;25.27;;;14.82;;
22861;SDS011;11598;50.652;6.172;2023-03-20T00:54:55;26.23;;;15.32;;
22861;SDS011;11598;50.652;6.172;2023-03-20T01:04:55;32.65;;;16.25;;
22861;SDS011;11598;50.652;6.172;2023-03-20T01:14:56;30.38;;;16.15;;
22861;SDS011;11598;50.652;6.172;2023-03-20T01:24:57;29.70;;;16.52;;
22861;SDS011;11598;50.652;6.172;2023-03-20T01:34:58;28.30;;;14.70;;
22861;SDS011;11598;50.652;6.172;2023-03-20T01:44:58;35.03;;;18.50;;
22861;SDS011;11598;50.652;6.172;2023-03-20T01:54:58;32.40;;;17.85;;
22861;SDS011;11598;50.652;6.172;2023-03-20T02:05:01;29.25;;;15.68;;
22861;SDS011;11598;50.652;6.172;2023-03-20T02:15:05;33.97;;;17.48;;
22861;SDS011;11598;50.652;6.172;2023-03-20T02:45:58;38.42;;;18.85;;
22861;SDS011;11598;50.652;6.172;2023-03-20T02:56:17;34.47;;;16.92;;
22861;SDS011;11598;50.652;6.172;2023-03-20T03:06:29;27.77;;;16.23;;
22861;SDS011;11598;50.652;6.172;2023-03-20T03:16:32;25.75;;;14.13;;
22861;SDS011;11598;50.652;6.172;2023-03-20T03:26:36;27.42;;;14.90;;
22861;SDS011;11598;50.652;6.172;2023-03-20T03:46:53;29.37;;;14.70;;
22861;SDS011;11598;50.652;6.172;2023-03-20T03:56:59;27.73;;;13.18;;
22861;SDS011;11598;50.652;6.172;2023-03-20T04:07:02;26.10;;;12.93;;
22861;SDS011;11598;50.652;6.172;2023-03-20T04:17:02;24.77;;;13.20;;
22861;SDS011;11598;50.652;6.172;2023-03-20T04:27:02;25.17;;;12.65;;
22861;SDS011;11598;50.652;6.172;2023-03-20T04:37:03;27.77;;;14.02;;
22861;SDS011;11598;50.652;6.172;2023-03-20T04:47:06;21.20;;;11.70;;
22861;SDS011;11598;50.652;6.172;2023-03-20T04:57:06;17.08;;;10.27;;
22861;SDS011;11598;50.652;6.172;2023-03-20T05:07:07;22.10;;;10.02;;
22861;SDS011;11598;50.652;6.172;2023-03-20T05:17:07;19.27;;;10.15;;
22861;SDS011;11598;50.652;6.172;2023-03-20T05:27:08;18.85;;;9.00;;
22861;SDS011;11598;50.652;6.172;2023-03-20T05:37:08;16.98;;;8.80;;
22861;SDS011;11598;50.652;6.172;2023-03-20T05:47:09;21.40;;;9.00;;
22861;SDS011;11598;50.652;6.172;2023-03-20T05:57:09;17.77;;;8.57;;
22861;SDS011;11598;50.652;6.172;2023-03-20T06:07:10;15.18;;;7.03;;
22861;SDS011;11598;50.652;6.172;2023-03-20T06:17:11;13.45;;;6.80;;
22861;SDS011;11598;50.652;6.172;2023-03-20T06:27:11;13.48;;;6.47;;
22861;SDS011;11598;50.652;6.172;2023-03-20T06:37:12;14.43;;;6.18;;
22861;SDS011;11598;50.652;6.172;2023-03-20T06:47:12;11.93;;;5.43;;
22861;SDS011;11598;50.652;6.172;2023-03-20T06:57:13;11.93;;;6.60;;
22861;SDS011;11598;50.652;6.172;2023-03-20T07:07:13;11.10;;;6.18;;
22861;SDS011;11598;50.652;6.172;2023-03-20T07:17:14;12.80;;;6.13;;
22861;SDS011;11598;50.652;6.172;2023-03-20T07:27:14;16.13;;;7.65;;
22861;SDS011;11598;50.652;6.172;2023-03-20T07:37:15;16.25;;;6.40;;
22861;SDS011;11598;50.652;6.172;2023-03-20T07:47:18;13.88;;;7.05;;
22861;SDS011;11598;50.652;6.172;2023-03-20T07:57:18;13.45;;;8.07;;
22861;SDS011;11598;50.652;6.172;2023-03-20T08:07:19;23.80;;;9.27;;
22861;SDS011;11598;50.652;6.172;2023-03-20T08:17:19;14.43;;;8.55;;
22861;SDS011;11598;50.652;6.172;2023-03-20T08:27:20;14.47;;;7.23;;
22861;SDS011;11598;50.652;6.172;2023-03-20T08:37:21;13.05;;;5.68;;
22861;SDS011;11598;50.652;6.172;2023-03-20T08:47:22;13.35;;;5.03;;
22861;SDS011;11598;50.652;6.172;2023-03-20T08:57:22;11.13;;;3.88;;
22861;SDS011;11598;50.652;6.172;2023-03-20T09:07:22;9.02;;;3.33;;
22861;SDS011;11598;50.652;6.172;2023-03-20T09:17:23;12.48;;;3.10;;
22861;SDS011;11598;50.652;6.172;2023-03-20T09:27:23;8.70;;;2.10;;
22861;SDS011;11598;50.652;6.172;2023-03-20T09:37:23;7.90;;;2.28;;
22861;SDS011;11598;50.652;6.172;2023-03-20T09:57:45;8.07;;;2.15;;
22861;SDS011;11598;50.652;6.172;2023-03-20T10:07:49;9.32;;;2.05;;
22861;SDS011;11598;50.652;6.172;2023-03-20T10:17:55;10.55;;;2.30;;
22861;SDS011;11598;50.652;6.172;2023-03-20T10:28:15;7.88;;;1.80;;
22861;SDS011;11598;50.652;6.172;2023-03-20T10:48:46;7.70;;;2.00;;
22861;SDS011;11598;50.652;6.172;2023-03-20T10:58:53;10.18;;;2.15;;
22861;SDS011;11598;50.652;6.172;2023-03-20T11:09:15;11.75;;;2.20;;
22861;SDS011;11598;50.652;6.172;2023-03-20T11:19:20;6.97;;;1.92;;
22861;SDS011;11598;50.652;6.172;2023-03-20T11:29:28;8.60;;;2.00;;
22861;SDS011;11598;50.652;6.172;2023-03-20T11:39:33;11.18;;;2.80;;
22861;SDS011;11598;50.652;6.172;2023-03-20T11:49:46;10.40;;;2.83;;
22861;SDS011;11598;50.652;6.172;2023-03-20T11:59:55;8.75;;;2.78;;
22861;SDS011;11598;50.652;6.172;2023-03-20T12:09:57;7.20;;;2.20;;
22861;SDS011;11598;50.652;6.172;2023-03-20T12:20:13;9.35;;;2.40;;
22861;SDS011;11598;50.652;6.172;2023-03-20T12:30:29;8.90;;;2.67;;
22861;SDS011;11598;50.652;6.172;2023-03-20T12:40:41;13.07;;;2.28;;
22861;SDS011;11598;50.652;6.172;2023-03-20T12:50:44;10.18;;;2.15;;
22861;SDS011;11598;50.652;6.172;2023-03-20T13:21:30;7.85;;;1.58;;
22861;SDS011;11598;50.652;6.172;2023-03-20T13:41:33;6.30;;;1.30;;
22861;SDS011;11598;50.652;6.172;2023-03-20T13:51:38;9.20;;;1.70;;
22861;SDS011;11598;50.652;6.172;2023-03-20T14:01:46;8.30;;;1.42;;
22861;SDS011;11598;50.652;6.172;2023-03-20T14:11:50;10.50;;;2.00;;
22861;SDS011;11598;50.652;6.172;2023-03-20T14:21:53;9.43;;;1.40;;
22861;SDS011;11598;50.652;6.172;2023-03-20T14:53:01;8.50;;;1.50;;
22861;SDS011;11598;50.652;6.172;2023-03-20T15:13:06;6.57;;;1.20;;
22861;SDS011;11598;50.652;6.172;2023-03-20T15:23:07;12.30;;;1.48;;
22861;SDS011;11598;50.652;6.172;2023-03-20T15:33:10;6.13;;;1.13;;
22861;SDS011;11598;50.652;6.172;2023-03-20T15:43:18;8.68;;;1.35;;
22861;SDS011;11598;50.652;6.172;2023-03-20T15:53:24;6.10;;;1.20;;
22861;SDS011;11598;50.652;6.172;2023-03-20T16:03:29;9.30;;;1.30;;
22861;SDS011;11598;50.652;6.172;2023-03-20T16:13:49;6.40;;;1.35;;
22861;SDS011;11598;50.652;6.172;2023-03-20T16:23:52;5.00;;;1.00;;
22861;SDS011;11598;50.652;6.172;2023-03-20T16:33:58;5.60;;;1.33;;
22861;SDS011;11598;50.652;6.172;2023-03-20T16:44:06;6.07;;;1.33;;
22861;SDS011;11598;50.652;6.172;2023-03-20T16:54:17;5.35;;;1.33;;
22861;SDS011;11598;50.652;6.172;2023-03-20T17:04:21;9.02;;;1.60;;
22861;SDS011;11598;50.652;6.172;2023-03-20T17:14:23;7.93;;;1.60;;
22861;SDS011;11598;50.652;6.172;2023-03-20T17:24:23;4.32;;;1.00;;
22861;SDS011;11598;50.652;6.172;2023-03-20T17:34:23;6.40;;;1.20;;
22861;SDS011;11598;50.652;6.172;2023-03-20T17:44:24;5.28;;;1.63;;
22861;SDS011;11598;50.652;6.172;2023-03-20T17:54:24;7.32;;;1.40;;
22861;SDS011;11598;50.652;6.172;2023-03-20T18:04:25;7.45;;;1.65;;
22861;SDS011;11598;50.652;6.172;2023-03-20T18:14:25;11.95;;;2.17;;
22861;SDS011;11598;50.652;6.172;2023-03-20T18:24:26;7.53;;;1.90;;
22861;SDS011;11598;50.652;6.172;2023-03-20T18:34:26;6.43;;;1.88;;
22861;SDS011;11598;50.652;6.172;2023-03-20T18:44:27;8.10;;;2.30;;
22861;SDS011;11598;50.652;6.172;2023-03-20T18:54:27;8.75;;;1.85;;
22861;SDS011;11598;50.652;6.172;2023-03-20T19:04:27;6.05;;;1.70;;
22861;SDS011;11598;50.652;6.172;2023-03-20T19:14:28;7.07;;;1.73;;
22861;SDS011;11598;50.652;6.172;2023-03-20T19:24:28;7.72;;;1.60;;
22861;SDS011;11598;50.652;6.172;2023-03-20T19:34:28;8.35;;;1.92;;
22861;SDS011;11598;50.652;6.172;2023-03-20T19:44:29;9.75;;;1.70;;
22861;SDS011;11598;50.652;6.172;2023-03-20T19:54:29;9.88;;;2.67;;
22861;SDS011;11598;50.652;6.172;2023-03-20T20:04:30;5.68;;;1.60;;
22861;SDS011;11598;50.652;6.172;2023-03-20T20:14:30;12.60;;;2.22;;
22861;SDS011;11598;50.652;6.172;2023-03-20T20:24:30;9.02;;;2.47;;
22861;SDS011;11598;50.652;6.172;2023-03-20T20:34:32;9.15;;;2.03;;
22861;SDS011;11598;50.652;6.172;2023-03-20T20:44:32;9.15;;;2.15;;
22861;SDS011;11598;50.652;6.172;2023-03-20T20:54:33;17.33;;;3.33;;
22861;SDS011;11598;50.652;6.172;2023-03-20T21:04:34;9.63;;;2.70;;
22861;SDS011;11598;50.652;6.172;2023-03-20T21:14:34;13.13;;;3.17;;
22861;SDS011;11598;50.652;6.172;2023-03-20T21:24:35;12.85;;;4.20;;
22861;SDS011;11598;50.652;6.172;2023-03-20T21:34:36;13.73;;;4.70;;
22861;SDS011;11598;50.652;6.172;2023-03-20T21:44:38;18.50;;;5.65;;
22861;SDS011;11598;50.652;6.172;2023-03-20T21:54:38;12.18;;;5.40;;
22861;SDS011;11598;50.652;6.172;2023-03-20T22:04:38;15.02;;;6.32;;
22861;SDS011;11598;50.652;6.172;2023-03-20T22:14:39;21.13;;;7.22;;
22861;SDS011;11598;50.652;6.172;2023-03-20T22:24:39;20.33;;;7.53;;
22861;SDS011;11598;50.652;6.172;2023-03-20T22:34:40;15.65;;;6.28;;
22861;SDS011;11598;50.652;6.172;2023-03-20T22:44:40;16.38;;;5.75;;
22861;SDS011;11598;50.652;6.172;2023-03-20T22:54:41;18.30;;;5.78;;
22861;SDS011;11598;50.652;6.172;2023-03-20T23:04:41;16.45;;;6.35;;
22861;SDS011;11598;50.652;6.172;2023-03-20T23:14:42;13.43;;;6.22;;
22861;SDS011;11598;50.652;6.172;2023-03-20T23:24:42;16.63;;;6.22;;
22861;SDS011;11598;50.652;6.172;2023-03-20T23:34:42;15.20;;;6.13;;
22861;SDS011;11598;50.652;6.172;2023-03-20T23:44:43;17.45;;;5.80;;
22861;SDS011;11598;50.652;6.172;2023-03-20T23:54:43;15.13;;;5.23;;
